Vizconde de Eza — EAXB — position and weather

sailwx.info

Track history (hours):
 
Tides and Currents Weather Stations Pressure Air Temp Water Temp Dewpoint Dewpoint Depression Visibility Wind Speed Wind Dir Waves Ship Positions

Oceanographic research ship Vizconde de Eza (Spain)

Detailed information on ship capabilities available from University of Delaware's Ocean Information Center.

Last reported at 2019-Feb-21 14:32 UTC. Time now 2019-Feb-21 15:36 UTC.
Position N 42°14' W 008°44'.

Length 53 m; draft 5.8 m.

Type: Other ship. MMSI: 224582000.

Date/timePositionNaut miles runAvg speedWind from/ knotsBaromVisibWave heightAir tempDewpointWater temp
2019-Feb-21 14:32N 42°14' W 008°44'0 0.0
2019-Feb-21 14:26N 42°14' W 008°44'0 0.0
2019-Feb-21 13:44N 42°14' W 008°44'0 0.0
2019-Feb-21 04:50N 42°14' W 008°44'0 0.0
2019-Feb-21 02:44N 42°14' W 008°44'0 0.0
2019-Feb-21 02:14N 42°14' W 008°44'0 0.0
2019-Feb-21 00:26N 42°14' W 008°44'0 0.0
2019-Feb-20 23:38N 42°14' W 008°44'0 0.0
2019-Feb-20 17:38N 42°14' W 008°44'0 0.0
2019-Feb-20 17:26N 42°14' W 008°44'0 0.0
2019-Feb-20 16:50N 42°14' W 008°44'0 0.0
2019-Feb-20 16:26N 42°14' W 008°44'0 0.0
2019-Feb-20 15:56N 42°14' W 008°44'0 0.0
2019-Feb-20 15:26N 42°14' W 008°44'0 0.0
2019-Feb-20 14:56N 42°14' W 008°44'0 0.0
2019-Feb-20 14:26N 42°14' W 008°44'0 0.0
2019-Feb-20 13:56N 42°14' W 008°44'0 0.0
2019-Feb-20 13:20N 42°14' W 008°44'0 0.0
2019-Feb-20 09:32N 42°14' W 008°44'0 0.0
2019-Feb-20 03:50N 42°14' W 008°44'0 0.0
2019-Feb-19 16:32N 42°14' W 008°44'0 0.0
2019-Feb-19 14:50N 42°14' W 008°44'0 0.2
2019-Feb-19 14:28N 42°14' W 008°44'2 4.6
2019-Feb-19 14:00N 42°14' W 008°47'3 5.2
2019-Feb-19 13:30N 42°14' W 008°51'1 1.7
2019-Feb-19 13:00N 42°13' W 008°50'2 3.8
2019-Feb-19 12:30N 42°13' W 008°52'0 1.0
2019-Feb-19 12:00N 42°13' W 008°52'0 0.9
2019-Feb-19 11:30N 42°13' W 008°51'0 0.8
2019-Feb-19 11:00N 42°13' W 008°52'0 0.9
2019-Feb-19 10:30N 42°13' W 008°51'0 0.6
2019-Feb-19 10:00N 42°12' W 008°51'4 8.3
2019-Feb-19 09:30N 42°14' W 008°46'1 2.6
2019-Feb-19 09:00N 42°14' W 008°44'0 0.0
2019-Feb-19 07:43N 42°14' W 008°44'0 0.0
2019-Feb-19 05:55N 42°14' W 008°44'0 0.0
2019-Feb-19 03:13N 42°14' W 008°44'0 0.0
2019-Feb-19 02:49N 42°14' W 008°44'0 0.0
2019-Feb-18 19:20N 42°14' W 008°44'0 0.0
2019-Feb-18 17:48N 42°14' W 008°44'0 1.2
2019-Feb-18 17:29N 42°14' W 008°45'2 4.6
2019-Feb-18 17:00N 42°14' W 008°48'511.0
2019-Feb-18 16:30N 42°10' W 008°53'4 8.5
2019-Feb-18 16:00N 42°07' W 008°57'3 7.0
2019-Feb-18 15:30N 42°04' W 008°58'3 6.5
2019-Feb-18 15:00N 42°07' W 008°58'4 7.1
2019-Feb-18 14:30N 42°11' W 008°59'5 9.5
2019-Feb-18 14:00N 42°15' W 009°02'2 3.5
2019-Feb-18 13:30N 42°17' W 009°02'4 7.7
2019-Feb-18 13:00N 42°20' W 009°04'610.4
2019-Feb-18 12:26N 42°25' W 009°09'3 6.9
2019-Feb-18 12:00N 42°28' W 009°10'5 9.3
2019-Feb-18 11:27N 42°25' W 009°05'511.8
2019-Feb-18 11:00N 42°21' W 009°00'611.4
2019-Feb-18 10:30N 42°17' W 008°55'510.1
2019-Feb-18 10:00N 42°14' W 008°49'4 6.5
2019-Feb-18 09:28N 42°14' W 008°44'0 0.0
2019-Feb-18 08:32N 42°14' W 008°44'0 0.0
2019-Feb-18 08:02N 42°14' W 008°44'0 0.0
2019-Feb-18 07:26N 42°14' W 008°44'0 0.0
2019-Feb-18 06:20N 42°14' W 008°44'0 0.0
2019-Feb-18 05:26N 42°14' W 008°44'0 0.0
2019-Feb-18 02:44N 42°14' W 008°44'0 0.0
2019-Feb-18 02:20N 42°14' W 008°44'0 0.0
2019-Feb-18 01:08N 42°14' W 008°44'0 0.0
2019-Feb-18 00:38N 42°14' W 008°44'0 0.0
2019-Feb-17 22:26N 42°14' W 008°44'0 0.0
2019-Feb-17 16:26N 42°14' W 008°44'0 0.0
2019-Feb-17 13:44N 42°14' W 008°44'0 0.0
2019-Feb-17 12:20N 42°14' W 008°44'0 0.0
2019-Feb-16 16:08N 42°14' W 008°44'0 0.0
2019-Feb-16 14:38N 42°14' W 008°44'0 0.0
2019-Feb-16 13:20N 42°14' W 008°44'0 0.0
2019-Feb-16 12:14N 42°14' W 008°44'0 0.0
2019-Feb-16 10:08N 42°14' W 008°44'0 0.0
2019-Feb-15 17:59N 42°14' W 008°44'2 4.5
2019-Feb-15 17:30N 42°14' W 008°47'3 5.9
2019-Feb-15 17:01N 42°13' W 008°51'0 0.8
2019-Feb-15 16:30N 42°13' W 008°51'0 0.3
2019-Feb-15 16:00N 42°13' W 008°51'1 1.4
2019-Feb-15 15:30N 42°13' W 008°52'1 1.4
2019-Feb-15 15:01N 42°13' W 008°51'1 2.0
2019-Feb-15 14:31N 42°14' W 008°52'1 2.6
2019-Feb-15 14:00N 42°12' W 008°52'0 1.0
2019-Feb-15 13:30N 42°12' W 008°52'2 4.8
2019-Feb-15 13:00N 42°14' W 008°50'2 3.7
2019-Feb-15 12:31N 42°12' W 008°51'2 3.3
2019-Feb-15 12:00N 42°13' W 008°53'2 5.0
2019-Feb-15 11:30N 42°13' W 008°49'2 3.8
2019-Feb-15 11:00N 42°12' W 008°51'2 3.8
2019-Feb-15 10:30N 42°14' W 008°53'2 3.9
2019-Feb-15 10:00N 42°13' W 008°50'1 1.1
2019-Feb-15 09:31N 42°14' W 008°50'2 4.3
2019-Feb-15 09:01N 42°12' W 008°51'4 9.0
2019-Feb-15 08:31N 42°14' W 008°46'1 1.5
2019-Feb-15 07:32N 42°14' W 008°44'0 0.0
2019-Feb-15 07:20N 42°14' W 008°44'0 0.0
2019-Feb-15 06:08N 42°14' W 008°44'0 0.0
2019-Feb-14 16:32N 42°14' W 008°44'0 0.0
2019-Feb-14 15:38N 42°14' W 008°44'0 0.0
2019-Feb-14 15:26N 42°14' W 008°44'0 0.0
2019-Feb-14 14:14N 42°14' W 008°44'0 0.0
2019-Feb-14 13:26N 42°14' W 008°44'0 0.0
2019-Feb-14 12:32N 42°14' W 008°44'0 0.0
2019-Feb-14 09:56N 42°14' W 008°44'0 0.0
2019-Feb-14 08:44N 42°14' W 008°44'0 0.0
2019-Feb-14 07:26N 42°14' W 008°44'0 0.0
2019-Feb-14 06:32N 42°14' W 008°44'0 0.0
2019-Feb-13 21:59N 42°14' W 008°44'0 0.0
2019-Feb-13 18:26N 42°14' W 008°44'0 0.0
2019-Feb-13 17:32N 42°14' W 008°44'0 0.0
2019-Feb-13 17:20N 42°14' W 008°44'0 0.0
2019-Feb-13 14:50N 42°14' W 008°44'0 0.0
2019-Feb-13 14:08N 42°14' W 008°44'0 0.0
2019-Feb-13 13:56N 42°14' W 008°44'0 0.0
2019-Feb-13 13:26N 42°14' W 008°44'0 0.0
2019-Feb-13 12:50N 42°14' W 008°44'  
Track history (hours):
 
Tides and Currents Weather Stations Pressure Air Temp Water Temp Dewpoint Dewpoint Depression Visibility Wind Speed Wind Dir Waves Ship Positions

Oceanographic research ship Vizconde de Eza (Spain)

Detailed information on ship capabilities available from University of Delaware's Ocean Information Center.

Last reported at 2019-Feb-21 14:32 UTC. Time now 2019-Feb-21 15:36 UTC.
Position N 42°14' W 008°44'.

Length 53 m; draft 5.8 m.

Type: Other ship. MMSI: 224582000.

Date/timePositionNaut miles runAvg speedWind from/ knotsBaromVisibWave heightAir tempDewpointWater temp
2019-Feb-21 14:32N 42°14' W 008°44'0 0.0
2019-Feb-21 14:26N 42°14' W 008°44'0 0.0
2019-Feb-21 13:44N 42°14' W 008°44'0 0.0
2019-Feb-21 04:50N 42°14' W 008°44'0 0.0
2019-Feb-21 02:44N 42°14' W 008°44'0 0.0
2019-Feb-21 02:14N 42°14' W 008°44'0 0.0
2019-Feb-21 00:26N 42°14' W 008°44'0 0.0
2019-Feb-20 23:38N 42°14' W 008°44'0 0.0
2019-Feb-20 17:38N 42°14' W 008°44'0 0.0
2019-Feb-20 17:26N 42°14' W 008°44'0 0.0
2019-Feb-20 16:50N 42°14' W 008°44'0 0.0
2019-Feb-20 16:26N 42°14' W 008°44'0 0.0
2019-Feb-20 15:56N 42°14' W 008°44'0 0.0
2019-Feb-20 15:26N 42°14' W 008°44'0 0.0
2019-Feb-20 14:56N 42°14' W 008°44'0 0.0
2019-Feb-20 14:26N 42°14' W 008°44'0 0.0
2019-Feb-20 13:56N 42°14' W 008°44'0 0.0
2019-Feb-20 13:20N 42°14' W 008°44'0 0.0
2019-Feb-20 09:32N 42°14' W 008°44'0 0.0
2019-Feb-20 03:50N 42°14' W 008°44'0 0.0
2019-Feb-19 16:32N 42°14' W 008°44'0 0.0
2019-Feb-19 14:50N 42°14' W 008°44'0 0.2
2019-Feb-19 14:28N 42°14' W 008°44'2 4.6
2019-Feb-19 14:00N 42°14' W 008°47'3 5.2
2019-Feb-19 13:30N 42°14' W 008°51'1 1.7
2019-Feb-19 13:00N 42°13' W 008°50'2 3.8
2019-Feb-19 12:30N 42°13' W 008°52'0 1.0
2019-Feb-19 12:00N 42°13' W 008°52'0 0.9
2019-Feb-19 11:30N 42°13' W 008°51'0 0.8
2019-Feb-19 11:00N 42°13' W 008°52'0 0.9
2019-Feb-19 10:30N 42°13' W 008°51'0 0.6
2019-Feb-19 10:00N 42°12' W 008°51'4 8.3
2019-Feb-19 09:30N 42°14' W 008°46'1 2.6
2019-Feb-19 09:00N 42°14' W 008°44'0 0.0
2019-Feb-19 07:43N 42°14' W 008°44'0 0.0
2019-Feb-19 05:55N 42°14' W 008°44'0 0.0
2019-Feb-19 03:13N 42°14' W 008°44'0 0.0
2019-Feb-19 02:49N 42°14' W 008°44'0 0.0
2019-Feb-18 19:20N 42°14' W 008°44'0 0.0
2019-Feb-18 17:48N 42°14' W 008°44'0 1.2
2019-Feb-18 17:29N 42°14' W 008°45'2 4.6
2019-Feb-18 17:00N 42°14' W 008°48'511.0
2019-Feb-18 16:30N 42°10' W 008°53'4 8.5
2019-Feb-18 16:00N 42°07' W 008°57'3 7.0
2019-Feb-18 15:30N 42°04' W 008°58'3 6.5
2019-Feb-18 15:00N 42°07' W 008°58'4 7.1
2019-Feb-18 14:30N 42°11' W 008°59'5 9.5
2019-Feb-18 14:00N 42°15' W 009°02'2 3.5
2019-Feb-18 13:30N 42°17' W 009°02'4 7.7
2019-Feb-18 13:00N 42°20' W 009°04'610.4
2019-Feb-18 12:26N 42°25' W 009°09'3 6.9
2019-Feb-18 12:00N 42°28' W 009°10'5 9.3
2019-Feb-18 11:27N 42°25' W 009°05'511.8
2019-Feb-18 11:00N 42°21' W 009°00'611.4
2019-Feb-18 10:30N 42°17' W 008°55'510.1
2019-Feb-18 10:00N 42°14' W 008°49'4 6.5
2019-Feb-18 09:28N 42°14' W 008°44'0 0.0
2019-Feb-18 08:32N 42°14' W 008°44'0 0.0
2019-Feb-18 08:02N 42°14' W 008°44'0 0.0
2019-Feb-18 07:26N 42°14' W 008°44'0 0.0
2019-Feb-18 06:20N 42°14' W 008°44'0 0.0
2019-Feb-18 05:26N 42°14' W 008°44'0 0.0
2019-Feb-18 02:44N 42°14' W 008°44'0 0.0
2019-Feb-18 02:20N 42°14' W 008°44'0 0.0
2019-Feb-18 01:08N 42°14' W 008°44'0 0.0
2019-Feb-18 00:38N 42°14' W 008°44'0 0.0
2019-Feb-17 22:26N 42°14' W 008°44'0 0.0
2019-Feb-17 16:26N 42°14' W 008°44'0 0.0
2019-Feb-17 13:44N 42°14' W 008°44'0 0.0
2019-Feb-17 12:20N 42°14' W 008°44'0 0.0
2019-Feb-16 16:08N 42°14' W 008°44'0 0.0
2019-Feb-16 14:38N 42°14' W 008°44'0 0.0
2019-Feb-16 13:20N 42°14' W 008°44'0 0.0
2019-Feb-16 12:14N 42°14' W 008°44'0 0.0
2019-Feb-16 10:08N 42°14' W 008°44'0 0.0
2019-Feb-15 17:59N 42°14' W 008°44'2 4.5
2019-Feb-15 17:30N 42°14' W 008°47'3 5.9
2019-Feb-15 17:01N 42°13' W 008°51'0 0.8
2019-Feb-15 16:30N 42°13' W 008°51'0 0.3
2019-Feb-15 16:00N 42°13' W 008°51'1 1.4
2019-Feb-15 15:30N 42°13' W 008°52'1 1.4
2019-Feb-15 15:01N 42°13' W 008°51'1 2.0
2019-Feb-15 14:31N 42°14' W 008°52'1 2.6
2019-Feb-15 14:00N 42°12' W 008°52'0 1.0
2019-Feb-15 13:30N 42°12' W 008°52'2 4.8
2019-Feb-15 13:00N 42°14' W 008°50'2 3.7
2019-Feb-15 12:31N 42°12' W 008°51'2 3.3
2019-Feb-15 12:00N 42°13' W 008°53'2 5.0
2019-Feb-15 11:30N 42°13' W 008°49'2 3.8
2019-Feb-15 11:00N 42°12' W 008°51'2 3.8
2019-Feb-15 10:30N 42°14' W 008°53'2 3.9
2019-Feb-15 10:00N 42°13' W 008°50'1 1.1
2019-Feb-15 09:31N 42°14' W 008°50'2 4.3
2019-Feb-15 09:01N 42°12' W 008°51'4 9.0
2019-Feb-15 08:31N 42°14' W 008°46'1 1.5
2019-Feb-15 07:32N 42°14' W 008°44'0 0.0
2019-Feb-15 07:20N 42°14' W 008°44'0 0.0
2019-Feb-15 06:08N 42°14' W 008°44'0 0.0
2019-Feb-14 16:32N 42°14' W 008°44'0 0.0
2019-Feb-14 15:38N 42°14' W 008°44'0 0.0
2019-Feb-14 15:26N 42°14' W 008°44'0 0.0
2019-Feb-14 14:14N 42°14' W 008°44'0 0.0
2019-Feb-14 13:26N 42°14' W 008°44'0 0.0
2019-Feb-14 12:32N 42°14' W 008°44'0 0.0
2019-Feb-14 09:56N 42°14' W 008°44'0 0.0
2019-Feb-14 08:44N 42°14' W 008°44'0 0.0
2019-Feb-14 07:26N 42°14' W 008°44'0 0.0
2019-Feb-14 06:32N 42°14' W 008°44'0 0.0
2019-Feb-13 21:59N 42°14' W 008°44'0 0.0
2019-Feb-13 18:26N 42°14' W 008°44'0 0.0
2019-Feb-13 17:32N 42°14' W 008°44'0 0.0
2019-Feb-13 17:20N 42°14' W 008°44'0 0.0
2019-Feb-13 14:50N 42°14' W 008°44'0 0.0
2019-Feb-13 14:08N 42°14' W 008°44'0 0.0
2019-Feb-13 13:56N 42°14' W 008°44'0 0.0
2019-Feb-13 13:26N 42°14' W 008°44'0 0.0
2019-Feb-13 12:50N 42°14' W 008°44'  

Dump ship's entire track history